sensor_id;sensor_type;location;lat;lon;timestamp;P1;durP1;ratioP1;P2;durP2;ratioP2
4961;SDS011;2496;52.468;13.342;2022-07-01T00:00:21;14.83;;;12.23;;
4961;SDS011;2496;52.468;13.342;2022-07-01T00:02:48;13.73;;;11.60;;
4961;SDS011;2496;52.468;13.342;2022-07-01T00:05:16;14.53;;;12.30;;
4961;SDS011;2496;52.468;13.342;2022-07-01T00:07:43;12.47;;;11.17;;
4961;SDS011;2496;52.468;13.342;2022-07-01T00:10:10;13.00;;;11.10;;
4961;SDS011;2496;52.468;13.342;2022-07-01T00:12:36;14.60;;;13.20;;
4961;SDS011;2496;52.468;13.342;2022-07-01T00:15:04;12.50;;;11.20;;
4961;SDS011;2496;52.468;13.342;2022-07-01T00:17:31;13.90;;;12.47;;
4961;SDS011;2496;52.468;13.342;2022-07-01T00:19:58;13.00;;;11.70;;
4961;SDS011;2496;52.468;13.342;2022-07-01T00:22:26;13.53;;;12.20;;
4961;SDS011;2496;52.468;13.342;2022-07-01T00:24:56;16.40;;;12.67;;
4961;SDS011;2496;52.468;13.342;2022-07-01T00:27:23;17.67;;;13.27;;
4961;SDS011;2496;52.468;13.342;2022-07-01T00:29:50;16.13;;;12.67;;
4961;SDS011;2496;52.468;13.342;2022-07-01T00:32:17;16.80;;;14.13;;
4961;SDS011;2496;52.468;13.342;2022-07-01T00:34:44;16.30;;;13.40;;
4961;SDS011;2496;52.468;13.342;2022-07-01T00:37:10;16.47;;;13.77;;
4961;SDS011;2496;52.468;13.342;2022-07-01T00:39:39;14.77;;;12.97;;
4961;SDS011;2496;52.468;13.342;2022-07-01T00:42:06;15.67;;;13.73;;
4961;SDS011;2496;52.468;13.342;2022-07-01T00:44:33;17.27;;;14.20;;
4961;SDS011;2496;52.468;13.342;2022-07-01T00:47:02;16.97;;;15.23;;
4961;SDS011;2496;52.468;13.342;2022-07-01T00:49:34;18.87;;;15.00;;
4961;SDS011;2496;52.468;13.342;2022-07-01T00:52:02;17.80;;;15.00;;
4961;SDS011;2496;52.468;13.342;2022-07-01T00:54:30;16.13;;;14.43;;
4961;SDS011;2496;52.468;13.342;2022-07-01T00:56:58;16.13;;;14.33;;
4961;SDS011;2496;52.468;13.342;2022-07-01T00:59:25;18.10;;;15.50;;
4961;SDS011;2496;52.468;13.342;2022-07-01T01:01:53;17.87;;;15.40;;
4961;SDS011;2496;52.468;13.342;2022-07-01T01:04:20;17.77;;;15.87;;
4961;SDS011;2496;52.468;13.342;2022-07-01T01:06:47;17.83;;;14.70;;
4961;SDS011;2496;52.468;13.342;2022-07-01T01:09:14;20.60;;;17.17;;
4961;SDS011;2496;52.468;13.342;2022-07-01T01:11:41;18.43;;;16.10;;
4961;SDS011;2496;52.468;13.342;2022-07-01T01:14:09;18.23;;;15.67;;
4961;SDS011;2496;52.468;13.342;2022-07-01T01:16:37;18.80;;;16.43;;
4961;SDS011;2496;52.468;13.342;2022-07-01T01:19:04;22.10;;;18.10;;
4961;SDS011;2496;52.468;13.342;2022-07-01T01:21:33;20.07;;;16.60;;
4961;SDS011;2496;52.468;13.342;2022-07-01T01:24:01;19.47;;;17.33;;
4961;SDS011;2496;52.468;13.342;2022-07-01T01:26:28;18.83;;;16.80;;
4961;SDS011;2496;52.468;13.342;2022-07-01T01:28:55;20.87;;;17.13;;
4961;SDS011;2496;52.468;13.342;2022-07-01T01:31:27;21.03;;;18.73;;
4961;SDS011;2496;52.468;13.342;2022-07-01T01:33:55;21.50;;;17.13;;
4961;SDS011;2496;52.468;13.342;2022-07-01T01:36:22;20.00;;;17.90;;
4961;SDS011;2496;52.468;13.342;2022-07-01T01:38:50;23.80;;;18.70;;
4961;SDS011;2496;52.468;13.342;2022-07-01T01:41:17;21.10;;;18.70;;
4961;SDS011;2496;52.468;13.342;2022-07-01T01:43:44;20.93;;;18.10;;
4961;SDS011;2496;52.468;13.342;2022-07-01T01:46:12;20.17;;;17.67;;
4961;SDS011;2496;52.468;13.342;2022-07-01T01:48:39;23.87;;;19.10;;
4961;SDS011;2496;52.468;13.342;2022-07-01T01:51:06;21.50;;;17.80;;
4961;SDS011;2496;52.468;13.342;2022-07-01T01:53:33;22.33;;;19.17;;
4961;SDS011;2496;52.468;13.342;2022-07-01T01:56:01;20.73;;;18.13;;
4961;SDS011;2496;52.468;13.342;2022-07-01T01:58:28;21.93;;;18.87;;
4961;SDS011;2496;52.468;13.342;2022-07-01T02:00:58;22.10;;;19.40;;
4961;SDS011;2496;52.468;13.342;2022-07-01T02:03:27;26.47;;;19.30;;
4961;SDS011;2496;52.468;13.342;2022-07-01T02:05:54;20.20;;;18.00;;
4961;SDS011;2496;52.468;13.342;2022-07-01T02:08:21;20.23;;;18.20;;
4961;SDS011;2496;52.468;13.342;2022-07-01T02:10:50;24.07;;;18.07;;
4961;SDS011;2496;52.468;13.342;2022-07-01T02:13:20;21.60;;;19.37;;
4961;SDS011;2496;52.468;13.342;2022-07-01T02:15:47;24.47;;;18.33;;
4961;SDS011;2496;52.468;13.342;2022-07-01T02:18:16;22.27;;;19.17;;
4961;SDS011;2496;52.468;13.342;2022-07-01T02:20:44;22.90;;;19.33;;
4961;SDS011;2496;52.468;13.342;2022-07-01T02:23:11;22.63;;;18.37;;
4961;SDS011;2496;52.468;13.342;2022-07-01T02:25:40;22.87;;;18.40;;
4961;SDS011;2496;52.468;13.342;2022-07-01T02:28:09;22.33;;;19.23;;
4961;SDS011;2496;52.468;13.342;2022-07-01T02:30:39;20.67;;;18.47;;
4961;SDS011;2496;52.468;13.342;2022-07-01T02:33:07;26.87;;;19.70;;
4961;SDS011;2496;52.468;13.342;2022-07-01T02:35:37;22.80;;;20.30;;
4961;SDS011;2496;52.468;13.342;2022-07-01T02:38:06;21.27;;;18.20;;
4961;SDS011;2496;52.468;13.342;2022-07-01T02:40:36;22.90;;;19.20;;
4961;SDS011;2496;52.468;13.342;2022-07-01T02:43:05;22.17;;;18.30;;
4961;SDS011;2496;52.468;13.342;2022-07-01T02:45:32;21.53;;;19.10;;
4961;SDS011;2496;52.468;13.342;2022-07-01T02:48:01;24.93;;;21.10;;
4961;SDS011;2496;52.468;13.342;2022-07-01T02:50:29;22.20;;;19.63;;
4961;SDS011;2496;52.468;13.342;2022-07-01T02:52:57;25.90;;;20.53;;
4961;SDS011;2496;52.468;13.342;2022-07-01T02:55:29;22.87;;;19.50;;
4961;SDS011;2496;52.468;13.342;2022-07-01T02:57:57;24.70;;;21.07;;
4961;SDS011;2496;52.468;13.342;2022-07-01T03:00:25;27.13;;;20.70;;
4961;SDS011;2496;52.468;13.342;2022-07-01T03:02:53;24.80;;;20.20;;
4961;SDS011;2496;52.468;13.342;2022-07-01T03:05:23;24.63;;;20.70;;
4961;SDS011;2496;52.468;13.342;2022-07-01T03:07:52;28.53;;;22.60;;
4961;SDS011;2496;52.468;13.342;2022-07-01T03:10:21;26.90;;;22.13;;
4961;SDS011;2496;52.468;13.342;2022-07-01T03:12:50;23.60;;;19.50;;
4961;SDS011;2496;52.468;13.342;2022-07-01T03:15:20;28.20;;;21.40;;
4961;SDS011;2496;52.468;13.342;2022-07-01T03:17:49;30.67;;;22.80;;
4961;SDS011;2496;52.468;13.342;2022-07-01T03:20:17;28.00;;;23.00;;
4961;SDS011;2496;52.468;13.342;2022-07-01T03:22:47;28.57;;;21.93;;
4961;SDS011;2496;52.468;13.342;2022-07-01T03:25:15;29.43;;;22.10;;
4961;SDS011;2496;52.468;13.342;2022-07-01T03:27:42;28.67;;;22.60;;
4961;SDS011;2496;52.468;13.342;2022-07-01T03:30:12;25.87;;;22.53;;
4961;SDS011;2496;52.468;13.342;2022-07-01T03:32:40;30.40;;;22.00;;
4961;SDS011;2496;52.468;13.342;2022-07-01T03:35:22;27.80;;;22.47;;
4961;SDS011;2496;52.468;13.342;2022-07-01T03:38:07;29.07;;;23.70;;
4961;SDS011;2496;52.468;13.342;2022-07-01T03:40:38;26.67;;;22.80;;
4961;SDS011;2496;52.468;13.342;2022-07-01T03:43:06;28.33;;;22.23;;
4961;SDS011;2496;52.468;13.342;2022-07-01T03:45:35;28.60;;;22.80;;
4961;SDS011;2496;52.468;13.342;2022-07-01T03:48:02;27.43;;;22.13;;
4961;SDS011;2496;52.468;13.342;2022-07-01T03:50:30;27.00;;;22.00;;
4961;SDS011;2496;52.468;13.342;2022-07-01T03:52:59;25.43;;;22.10;;
4961;SDS011;2496;52.468;13.342;2022-07-01T03:55:46;30.63;;;23.20;;
4961;SDS011;2496;52.468;13.342;2022-07-01T03:58:12;28.83;;;22.57;;
4961;SDS011;2496;52.468;13.342;2022-07-01T04:00:40;26.53;;;22.87;;
4961;SDS011;2496;52.468;13.342;2022-07-01T04:03:06;28.40;;;23.30;;
4961;SDS011;2496;52.468;13.342;2022-07-01T04:05:34;30.70;;;24.40;;
4961;SDS011;2496;52.468;13.342;2022-07-01T04:08:03;29.03;;;22.73;;
4961;SDS011;2496;52.468;13.342;2022-07-01T04:10:33;29.97;;;22.83;;
4961;SDS011;2496;52.468;13.342;2022-07-01T04:13:03;28.00;;;24.60;;
4961;SDS011;2496;52.468;13.342;2022-07-01T04:15:31;28.87;;;24.53;;
4961;SDS011;2496;52.468;13.342;2022-07-01T04:17:59;27.00;;;22.80;;
4961;SDS011;2496;52.468;13.342;2022-07-01T04:20:30;26.47;;;22.70;;
4961;SDS011;2496;52.468;13.342;2022-07-01T04:22:59;28.60;;;22.77;;
4961;SDS011;2496;52.468;13.342;2022-07-01T04:25:25;29.53;;;23.77;;
4961;SDS011;2496;52.468;13.342;2022-07-01T04:27:55;30.47;;;25.07;;
4961;SDS011;2496;52.468;13.342;2022-07-01T04:30:23;26.20;;;22.53;;
4961;SDS011;2496;52.468;13.342;2022-07-01T04:32:50;30.40;;;24.57;;
4961;SDS011;2496;52.468;13.342;2022-07-01T04:35:17;34.57;;;23.50;;
4961;SDS011;2496;52.468;13.342;2022-07-01T04:37:44;25.40;;;20.67;;
4961;SDS011;2496;52.468;13.342;2022-07-01T04:40:11;37.00;;;22.63;;
4961;SDS011;2496;52.468;13.342;2022-07-01T04:42:38;32.40;;;24.23;;
4961;SDS011;2496;52.468;13.342;2022-07-01T04:45:05;29.80;;;25.07;;
4961;SDS011;2496;52.468;13.342;2022-07-01T04:47:37;29.57;;;25.37;;
4961;SDS011;2496;52.468;13.342;2022-07-01T04:50:06;26.20;;;22.27;;
4961;SDS011;2496;52.468;13.342;2022-07-01T04:52:33;31.97;;;25.43;;
4961;SDS011;2496;52.468;13.342;2022-07-01T04:55:00;34.30;;;23.10;;
4961;SDS011;2496;52.468;13.342;2022-07-01T04:57:27;30.80;;;23.77;;
4961;SDS011;2496;52.468;13.342;2022-07-01T04:59:56;30.07;;;24.73;;
4961;SDS011;2496;52.468;13.342;2022-07-01T05:02:23;30.63;;;21.43;;
4961;SDS011;2496;52.468;13.342;2022-07-01T05:04:51;32.13;;;22.97;;
4961;SDS011;2496;52.468;13.342;2022-07-01T05:07:19;28.63;;;24.40;;
4961;SDS011;2496;52.468;13.342;2022-07-01T05:09:57;29.97;;;23.33;;
4961;SDS011;2496;52.468;13.342;2022-07-01T05:12:25;27.70;;;22.57;;
4961;SDS011;2496;52.468;13.342;2022-07-01T05:14:52;28.87;;;22.77;;
4961;SDS011;2496;52.468;13.342;2022-07-01T05:17:19;30.23;;;21.93;;
4961;SDS011;2496;52.468;13.342;2022-07-01T05:20:11;26.10;;;21.50;;
4961;SDS011;2496;52.468;13.342;2022-07-01T05:22:55;30.13;;;22.10;;
4961;SDS011;2496;52.468;13.342;2022-07-01T05:25:22;22.93;;;20.37;;
4961;SDS011;2496;52.468;13.342;2022-07-01T05:27:49;26.23;;;20.00;;
4961;SDS011;2496;52.468;13.342;2022-07-01T05:30:19;34.80;;;20.77;;
4961;SDS011;2496;52.468;13.342;2022-07-01T05:32:46;23.83;;;20.27;;
4961;SDS011;2496;52.468;13.342;2022-07-01T05:35:15;28.63;;;22.10;;
4961;SDS011;2496;52.468;13.342;2022-07-01T05:37:42;24.53;;;21.90;;
4961;SDS011;2496;52.468;13.342;2022-07-01T05:40:12;24.00;;;20.07;;
4961;SDS011;2496;52.468;13.342;2022-07-01T05:42:39;27.77;;;21.70;;
4961;SDS011;2496;52.468;13.342;2022-07-01T05:45:06;29.47;;;20.53;;
4961;SDS011;2496;52.468;13.342;2022-07-01T05:47:33;26.10;;;21.37;;
4961;SDS011;2496;52.468;13.342;2022-07-01T05:50:00;24.53;;;21.90;;
4961;SDS011;2496;52.468;13.342;2022-07-01T05:52:28;28.40;;;22.60;;
4961;SDS011;2496;52.468;13.342;2022-07-01T05:54:55;28.93;;;20.33;;
4961;SDS011;2496;52.468;13.342;2022-07-01T05:57:22;28.77;;;21.37;;
4961;SDS011;2496;52.468;13.342;2022-07-01T05:59:49;29.27;;;21.80;;
4961;SDS011;2496;52.468;13.342;2022-07-01T06:02:16;36.60;;;22.77;;
4961;SDS011;2496;52.468;13.342;2022-07-01T06:04:43;25.93;;;21.53;;
4961;SDS011;2496;52.468;13.342;2022-07-01T06:07:10;25.33;;;21.73;;
4961;SDS011;2496;52.468;13.342;2022-07-01T06:09:38;28.30;;;22.90;;
4961;SDS011;2496;52.468;13.342;2022-07-01T06:12:05;24.93;;;20.80;;
4961;SDS011;2496;52.468;13.342;2022-07-01T06:14:33;27.43;;;22.00;;
4961;SDS011;2496;52.468;13.342;2022-07-01T06:17:00;31.50;;;22.07;;
4961;SDS011;2496;52.468;13.342;2022-07-01T06:19:26;30.23;;;23.30;;
4961;SDS011;2496;52.468;13.342;2022-07-01T06:21:53;27.00;;;22.60;;
4961;SDS011;2496;52.468;13.342;2022-07-01T06:24:21;30.40;;;21.10;;
4961;SDS011;2496;52.468;13.342;2022-07-01T06:26:50;25.40;;;20.83;;
4961;SDS011;2496;52.468;13.342;2022-07-01T06:29:17;26.43;;;22.20;;
4961;SDS011;2496;52.468;13.342;2022-07-01T06:31:44;27.20;;;22.80;;
4961;SDS011;2496;52.468;13.342;2022-07-01T06:34:11;28.33;;;23.57;;
4961;SDS011;2496;52.468;13.342;2022-07-01T06:36:38;26.53;;;23.33;;
4961;SDS011;2496;52.468;13.342;2022-07-01T06:39:04;27.57;;;21.40;;
4961;SDS011;2496;52.468;13.342;2022-07-01T06:41:31;28.70;;;21.17;;
4961;SDS011;2496;52.468;13.342;2022-07-01T06:44:00;32.13;;;22.40;;
4961;SDS011;2496;52.468;13.342;2022-07-01T06:46:29;25.90;;;22.73;;
4961;SDS011;2496;52.468;13.342;2022-07-01T06:48:57;30.27;;;24.40;;
4961;SDS011;2496;52.468;13.342;2022-07-01T06:51:24;27.07;;;23.17;;
4961;SDS011;2496;52.468;13.342;2022-07-01T06:53:52;26.33;;;22.37;;
4961;SDS011;2496;52.468;13.342;2022-07-01T06:56:19;28.50;;;23.87;;
4961;SDS011;2496;52.468;13.342;2022-07-01T06:58:46;26.50;;;22.10;;
4961;SDS011;2496;52.468;13.342;2022-07-01T07:01:14;29.30;;;24.17;;
4961;SDS011;2496;52.468;13.342;2022-07-01T07:03:41;29.37;;;23.63;;
4961;SDS011;2496;52.468;13.342;2022-07-01T07:06:08;25.17;;;21.30;;
4961;SDS011;2496;52.468;13.342;2022-07-01T07:08:35;24.43;;;21.27;;
4961;SDS011;2496;52.468;13.342;2022-07-01T07:11:02;29.13;;;22.70;;
4961;SDS011;2496;52.468;13.342;2022-07-01T07:13:29;24.23;;;21.60;;
4961;SDS011;2496;52.468;13.342;2022-07-01T07:15:56;30.87;;;22.03;;
4961;SDS011;2496;52.468;13.342;2022-07-01T07:18:24;28.43;;;19.80;;
4961;SDS011;2496;52.468;13.342;2022-07-01T07:20:51;23.70;;;19.13;;
4961;SDS011;2496;52.468;13.342;2022-07-01T07:23:18;23.67;;;19.30;;
4961;SDS011;2496;52.468;13.342;2022-07-01T07:25:45;23.00;;;17.30;;
4961;SDS011;2496;52.468;13.342;2022-07-01T07:28:12;17.60;;;15.47;;
4961;SDS011;2496;52.468;13.342;2022-07-01T07:30:38;17.57;;;15.70;;
4961;SDS011;2496;52.468;13.342;2022-07-01T07:33:05;18.07;;;14.90;;
4961;SDS011;2496;52.468;13.342;2022-07-01T07:35:33;23.03;;;14.37;;
4961;SDS011;2496;52.468;13.342;2022-07-01T07:38:00;16.63;;;12.37;;
4961;SDS011;2496;52.468;13.342;2022-07-01T07:40:27;17.53;;;13.37;;
4961;SDS011;2496;52.468;13.342;2022-07-01T07:42:54;18.83;;;13.00;;
4961;SDS011;2496;52.468;13.342;2022-07-01T07:45:21;18.07;;;13.37;;
4961;SDS011;2496;52.468;13.342;2022-07-01T07:47:48;20.30;;;14.10;;
4961;SDS011;2496;52.468;13.342;2022-07-01T07:50:16;17.30;;;14.20;;
4961;SDS011;2496;52.468;13.342;2022-07-01T07:52:45;15.83;;;12.40;;
4961;SDS011;2496;52.468;13.342;2022-07-01T07:55:12;14.27;;;11.73;;
4961;SDS011;2496;52.468;13.342;2022-07-01T07:57:39;13.67;;;11.93;;
4961;SDS011;2496;52.468;13.342;2022-07-01T08:00:08;14.93;;;11.90;;
4961;SDS011;2496;52.468;13.342;2022-07-01T08:02:36;14.83;;;11.60;;
4961;SDS011;2496;52.468;13.342;2022-07-01T08:05:04;12.63;;;11.27;;
4961;SDS011;2496;52.468;13.342;2022-07-01T08:07:34;16.17;;;12.93;;
4961;SDS011;2496;52.468;13.342;2022-07-01T08:10:03;13.73;;;11.50;;
4961;SDS011;2496;52.468;13.342;2022-07-01T08:12:30;13.73;;;12.30;;
4961;SDS011;2496;52.468;13.342;2022-07-01T08:14:58;14.97;;;13.37;;
4961;SDS011;2496;52.468;13.342;2022-07-01T08:17:25;17.00;;;11.60;;
4961;SDS011;2496;52.468;13.342;2022-07-01T08:19:52;17.03;;;12.20;;
4961;SDS011;2496;52.468;13.342;2022-07-01T08:22:19;15.60;;;12.33;;
4961;SDS011;2496;52.468;13.342;2022-07-01T08:24:46;14.33;;;11.37;;
4961;SDS011;2496;52.468;13.342;2022-07-01T08:27:15;14.30;;;12.80;;
4961;SDS011;2496;52.468;13.342;2022-07-01T08:29:42;19.20;;;12.90;;
4961;SDS011;2496;52.468;13.342;2022-07-01T08:32:08;16.23;;;14.03;;
4961;SDS011;2496;52.468;13.342;2022-07-01T08:34:35;17.50;;;12.97;;
4961;SDS011;2496;52.468;13.342;2022-07-01T08:37:03;16.47;;;12.30;;
4961;SDS011;2496;52.468;13.342;2022-07-01T08:39:30;14.70;;;12.50;;
4961;SDS011;2496;52.468;13.342;2022-07-01T08:41:57;13.83;;;12.43;;
4961;SDS011;2496;52.468;13.342;2022-07-01T08:44:25;17.60;;;12.93;;
4961;SDS011;2496;52.468;13.342;2022-07-01T08:46:52;14.77;;;13.27;;
4961;SDS011;2496;52.468;13.342;2022-07-01T08:49:19;18.30;;;13.63;;
4961;SDS011;2496;52.468;13.342;2022-07-01T08:51:47;14.90;;;13.30;;
4961;SDS011;2496;52.468;13.342;2022-07-01T08:54:14;13.87;;;12.40;;
4961;SDS011;2496;52.468;13.342;2022-07-01T08:56:41;11.90;;;10.60;;
4961;SDS011;2496;52.468;13.342;2022-07-01T08:59:10;13.23;;;10.90;;
4961;SDS011;2496;52.468;13.342;2022-07-01T09:01:40;11.50;;;10.10;;
4961;SDS011;2496;52.468;13.342;2022-07-01T09:04:14;13.70;;;10.90;;
4961;SDS011;2496;52.468;13.342;2022-07-01T09:06:42;17.47;;;11.77;;
4961;SDS011;2496;52.468;13.342;2022-07-01T09:09:13;12.10;;;10.77;;
4961;SDS011;2496;52.468;13.342;2022-07-01T09:11:45;11.57;;;9.93;;
4961;SDS011;2496;52.468;13.342;2022-07-01T09:14:18;11.10;;;8.97;;
4961;SDS011;2496;52.468;13.342;2022-07-01T09:16:48;7.30;;;5.47;;
4961;SDS011;2496;52.468;13.342;2022-07-01T09:19:17;6.43;;;4.07;;
4961;SDS011;2496;52.468;13.342;2022-07-01T09:21:47;5.93;;;3.93;;
4961;SDS011;2496;52.468;13.342;2022-07-01T09:24:28;11.37;;;4.03;;
4961;SDS011;2496;52.468;13.342;2022-07-01T09:26:57;9.10;;;3.10;;
4961;SDS011;2496;52.468;13.342;2022-07-01T09:29:26;6.07;;;3.30;;
4961;SDS011;2496;52.468;13.342;2022-07-01T09:31:58;3.77;;;2.97;;
4961;SDS011;2496;52.468;13.342;2022-07-01T09:34:25;7.30;;;2.70;;
4961;SDS011;2496;52.468;13.342;2022-07-01T09:36:52;2.80;;;1.80;;
4961;SDS011;2496;52.468;13.342;2022-07-01T09:39:21;3.60;;;2.10;;
4961;SDS011;2496;52.468;13.342;2022-07-01T09:41:48;1.93;;;1.63;;
4961;SDS011;2496;52.468;13.342;2022-07-01T09:44:15;3.43;;;1.93;;
4961;SDS011;2496;52.468;13.342;2022-07-01T09:46:52;3.10;;;2.53;;
4961;SDS011;2496;52.468;13.342;2022-07-01T09:49:22;3.00;;;2.60;;
4961;SDS011;2496;52.468;13.342;2022-07-01T09:51:50;2.30;;;1.90;;
4961;SDS011;2496;52.468;13.342;2022-07-01T09:54:17;7.53;;;2.90;;
4961;SDS011;2496;52.468;13.342;2022-07-01T09:56:44;3.30;;;2.23;;
4961;SDS011;2496;52.468;13.342;2022-07-01T09:59:11;3.40;;;2.60;;
4961;SDS011;2496;52.468;13.342;2022-07-01T10:01:38;8.13;;;2.87;;
4961;SDS011;2496;52.468;13.342;2022-07-01T10:04:06;4.17;;;2.37;;
4961;SDS011;2496;52.468;13.342;2022-07-01T10:09:40;3.47;;;2.57;;
4961;SDS011;2496;52.468;13.342;2022-07-01T10:14:59;2.90;;;2.33;;
4961;SDS011;2496;52.468;13.342;2022-07-01T10:17:29;2.00;;;1.80;;
4961;SDS011;2496;52.468;13.342;2022-07-01T10:20:06;2.50;;;2.30;;
4961;SDS011;2496;52.468;13.342;2022-07-01T10:22:39;4.00;;;2.37;;
4961;SDS011;2496;52.468;13.342;2022-07-01T10:28:20;4.50;;;2.90;;
4961;SDS011;2496;52.468;13.342;2022-07-01T10:33:39;3.00;;;2.23;;
4961;SDS011;2496;52.468;13.342;2022-07-01T10:36:09;2.40;;;2.20;;
4961;SDS011;2496;52.468;13.342;2022-07-01T10:41:58;2.00;;;1.77;;
4961;SDS011;2496;52.468;13.342;2022-07-01T10:44:27;4.10;;;1.57;;
4961;SDS011;2496;52.468;13.342;2022-07-01T10:46:55;1.63;;;1.40;;
4961;SDS011;2496;52.468;13.342;2022-07-01T10:52:20;2.97;;;1.60;;
4961;SDS011;2496;52.468;13.342;2022-07-01T10:54:48;2.90;;;1.40;;
4961;SDS011;2496;52.468;13.342;2022-07-01T10:57:20;1.97;;;1.40;;
4961;SDS011;2496;52.468;13.342;2022-07-01T11:03:10;3.00;;;1.57;;
4961;SDS011;2496;52.468;13.342;2022-07-01T11:05:38;2.53;;;1.50;;
4961;SDS011;2496;52.468;13.342;2022-07-01T11:08:05;1.40;;;1.20;;
4961;SDS011;2496;52.468;13.342;2022-07-01T11:10:33;1.27;;;1.13;;
4961;SDS011;2496;52.468;13.342;2022-07-01T11:13:02;3.20;;;1.17;;
4961;SDS011;2496;52.468;13.342;2022-07-01T11:15:30;2.83;;;1.77;;
4961;SDS011;2496;52.468;13.342;2022-07-01T11:17:58;1.90;;;1.50;;
4961;SDS011;2496;52.468;13.342;2022-07-01T11:20:26;2.73;;;1.87;;
4961;SDS011;2496;52.468;13.342;2022-07-01T11:22:55;3.80;;;1.60;;
4961;SDS011;2496;52.468;13.342;2022-07-01T11:25:23;1.97;;;1.33;;
4961;SDS011;2496;52.468;13.342;2022-07-01T11:27:50;1.67;;;1.30;;
4961;SDS011;2496;52.468;13.342;2022-07-01T11:30:21;2.40;;;1.80;;
4961;SDS011;2496;52.468;13.342;2022-07-01T11:32:49;4.10;;;2.60;;
4961;SDS011;2496;52.468;13.342;2022-07-01T11:35:17;4.33;;;1.77;;
4961;SDS011;2496;52.468;13.342;2022-07-01T11:38:04;7.93;;;2.73;;
4961;SDS011;2496;52.468;13.342;2022-07-01T11:40:49;5.97;;;3.13;;
4961;SDS011;2496;52.468;13.342;2022-07-01T11:43:20;15.73;;;3.30;;
4961;SDS011;2496;52.468;13.342;2022-07-01T11:45:49;2.93;;;1.90;;
4961;SDS011;2496;52.468;13.342;2022-07-01T11:48:29;6.80;;;1.63;;
4961;SDS011;2496;52.468;13.342;2022-07-01T11:51:09;6.00;;;2.17;;
4961;SDS011;2496;52.468;13.342;2022-07-01T11:53:38;6.40;;;2.60;;
4961;SDS011;2496;52.468;13.342;2022-07-01T11:56:05;5.80;;;2.67;;
4961;SDS011;2496;52.468;13.342;2022-07-01T11:58:43;2.40;;;2.00;;
4961;SDS011;2496;52.468;13.342;2022-07-01T12:01:12;4.03;;;2.20;;
4961;SDS011;2496;52.468;13.342;2022-07-01T12:03:53;4.70;;;2.57;;
4961;SDS011;2496;52.468;13.342;2022-07-01T12:06:21;3.40;;;3.10;;
4961;SDS011;2496;52.468;13.342;2022-07-01T12:08:50;4.60;;;3.20;;
4961;SDS011;2496;52.468;13.342;2022-07-01T12:11:19;3.53;;;3.13;;
4961;SDS011;2496;52.468;13.342;2022-07-01T12:13:48;5.70;;;3.93;;
4961;SDS011;2496;52.468;13.342;2022-07-01T12:16:17;4.17;;;3.77;;
4961;SDS011;2496;52.468;13.342;2022-07-01T12:18:51;5.13;;;3.70;;
4961;SDS011;2496;52.468;13.342;2022-07-01T12:21:20;8.80;;;3.77;;
4961;SDS011;2496;52.468;13.342;2022-07-01T12:24:04;4.83;;;3.90;;
4961;SDS011;2496;52.468;13.342;2022-07-01T12:26:32;5.13;;;3.93;;
4961;SDS011;2496;52.468;13.342;2022-07-01T12:29:00;4.73;;;3.60;;
4961;SDS011;2496;52.468;13.342;2022-07-01T12:31:28;4.97;;;4.47;;
4961;SDS011;2496;52.468;13.342;2022-07-01T12:33:55;5.33;;;4.17;;
4961;SDS011;2496;52.468;13.342;2022-07-01T12:36:22;6.80;;;5.67;;
4961;SDS011;2496;52.468;13.342;2022-07-01T12:38:59;4.97;;;4.47;;
4961;SDS011;2496;52.468;13.342;2022-07-01T12:41:28;7.20;;;5.30;;
4961;SDS011;2496;52.468;13.342;2022-07-01T12:43:58;9.90;;;7.93;;
4961;SDS011;2496;52.468;13.342;2022-07-01T12:46:30;6.93;;;5.30;;
4961;SDS011;2496;52.468;13.342;2022-07-01T12:48:58;7.00;;;5.43;;
4961;SDS011;2496;52.468;13.342;2022-07-01T12:51:29;7.07;;;6.03;;
4961;SDS011;2496;52.468;13.342;2022-07-01T12:53:57;9.67;;;6.97;;
4961;SDS011;2496;52.468;13.342;2022-07-01T12:56:25;8.83;;;6.20;;
4961;SDS011;2496;52.468;13.342;2022-07-01T12:58:54;6.40;;;5.47;;
4961;SDS011;2496;52.468;13.342;2022-07-01T13:01:21;5.90;;;5.40;;
4961;SDS011;2496;52.468;13.342;2022-07-01T13:03:50;7.73;;;6.07;;
4961;SDS011;2496;52.468;13.342;2022-07-01T13:06:18;7.80;;;6.10;;
4961;SDS011;2496;52.468;13.342;2022-07-01T13:08:44;7.47;;;5.40;;
4961;SDS011;2496;52.468;13.342;2022-07-01T13:11:11;5.30;;;4.73;;
4961;SDS011;2496;52.468;13.342;2022-07-01T13:13:38;8.43;;;5.50;;
4961;SDS011;2496;52.468;13.342;2022-07-01T13:16:05;6.80;;;5.70;;
4961;SDS011;2496;52.468;13.342;2022-07-01T13:18:32;6.23;;;4.30;;
4961;SDS011;2496;52.468;13.342;2022-07-01T13:21:00;8.20;;;5.10;;
4961;SDS011;2496;52.468;13.342;2022-07-01T13:23:27;6.90;;;5.60;;
4961;SDS011;2496;52.468;13.342;2022-07-01T13:25:54;29.47;;;20.13;;
4961;SDS011;2496;52.468;13.342;2022-07-01T13:28:21;8.37;;;6.00;;
4961;SDS011;2496;52.468;13.342;2022-07-01T13:30:48;6.13;;;5.10;;
4961;SDS011;2496;52.468;13.342;2022-07-01T13:33:15;5.30;;;4.30;;
4961;SDS011;2496;52.468;13.342;2022-07-01T13:35:42;6.80;;;5.83;;
4961;SDS011;2496;52.468;13.342;2022-07-01T13:38:10;6.37;;;5.40;;
4961;SDS011;2496;52.468;13.342;2022-07-01T13:40:37;8.37;;;5.40;;
4961;SDS011;2496;52.468;13.342;2022-07-01T13:43:05;7.57;;;6.30;;
4961;SDS011;2496;52.468;13.342;2022-07-01T13:45:32;7.67;;;5.57;;
4961;SDS011;2496;52.468;13.342;2022-07-01T13:47:59;6.87;;;5.10;;
4961;SDS011;2496;52.468;13.342;2022-07-01T13:50:26;6.10;;;5.50;;
4961;SDS011;2496;52.468;13.342;2022-07-01T13:52:53;6.17;;;4.90;;
4961;SDS011;2496;52.468;13.342;2022-07-01T13:55:21;7.03;;;6.07;;
4961;SDS011;2496;52.468;13.342;2022-07-01T13:57:49;6.10;;;5.03;;
4961;SDS011;2496;52.468;13.342;2022-07-01T14:00:16;6.10;;;5.20;;
4961;SDS011;2496;52.468;13.342;2022-07-01T14:02:44;6.00;;;5.07;;
4961;SDS011;2496;52.468;13.342;2022-07-01T14:05:11;6.83;;;5.63;;
4961;SDS011;2496;52.468;13.342;2022-07-01T14:07:38;14.73;;;5.87;;
4961;SDS011;2496;52.468;13.342;2022-07-01T14:10:06;6.60;;;5.20;;
4961;SDS011;2496;52.468;13.342;2022-07-01T14:12:35;7.00;;;4.70;;
4961;SDS011;2496;52.468;13.342;2022-07-01T14:15:02;8.03;;;4.33;;
4961;SDS011;2496;52.468;13.342;2022-07-01T14:17:29;8.47;;;4.80;;
4961;SDS011;2496;52.468;13.342;2022-07-01T14:19:56;10.47;;;4.77;;
4961;SDS011;2496;52.468;13.342;2022-07-01T14:22:24;5.20;;;3.83;;
4961;SDS011;2496;52.468;13.342;2022-07-01T14:24:51;6.87;;;6.00;;
4961;SDS011;2496;52.468;13.342;2022-07-01T14:27:19;19.03;;;6.40;;
4961;SDS011;2496;52.468;13.342;2022-07-01T14:29:47;8.17;;;6.50;;
4961;SDS011;2496;52.468;13.342;2022-07-01T14:32:14;25.30;;;18.17;;
4961;SDS011;2496;52.468;13.342;2022-07-01T14:34:41;6.60;;;5.50;;
4961;SDS011;2496;52.468;13.342;2022-07-01T14:37:08;6.53;;;4.80;;
4961;SDS011;2496;52.468;13.342;2022-07-01T14:39:35;7.40;;;5.63;;
4961;SDS011;2496;52.468;13.342;2022-07-01T14:42:02;6.07;;;5.23;;
4961;SDS011;2496;52.468;13.342;2022-07-01T14:44:29;7.00;;;5.50;;
4961;SDS011;2496;52.468;13.342;2022-07-01T14:46:57;5.60;;;5.00;;
4961;SDS011;2496;52.468;13.342;2022-07-01T14:49:24;6.80;;;5.83;;
4961;SDS011;2496;52.468;13.342;2022-07-01T14:51:51;6.00;;;5.40;;
4961;SDS011;2496;52.468;13.342;2022-07-01T14:54:18;5.70;;;4.23;;
4961;SDS011;2496;52.468;13.342;2022-07-01T14:56:45;7.27;;;4.80;;
4961;SDS011;2496;52.468;13.342;2022-07-01T14:59:12;6.23;;;5.63;;
4961;SDS011;2496;52.468;13.342;2022-07-01T15:01:39;7.40;;;4.20;;
4961;SDS011;2496;52.468;13.342;2022-07-01T15:04:08;4.83;;;4.43;;
4961;SDS011;2496;52.468;13.342;2022-07-01T15:06:35;6.17;;;4.73;;
4961;SDS011;2496;52.468;13.342;2022-07-01T15:09:06;5.43;;;4.93;;
4961;SDS011;2496;52.468;13.342;2022-07-01T15:11:33;5.57;;;5.07;;